sensor_id;sensor_type;location;lat;lon;timestamp;P1;durP1;ratioP1;P2;durP2;ratioP2
44456;SDS011;30159;49.316;8.558;2022-09-30T00:01:45;7.80;;;5.20;;
44456;SDS011;30159;49.316;8.558;2022-09-30T00:04:15;5.43;;;4.90;;
44456;SDS011;30159;49.316;8.558;2022-09-30T00:06:43;7.50;;;5.13;;
44456;SDS011;30159;49.316;8.558;2022-09-30T00:09:11;6.70;;;5.03;;
44456;SDS011;30159;49.316;8.558;2022-09-30T00:11:38;6.53;;;5.93;;
44456;SDS011;30159;49.316;8.558;2022-09-30T00:14:06;6.30;;;5.77;;
44456;SDS011;30159;49.316;8.558;2022-09-30T00:16:35;8.57;;;6.00;;
44456;SDS011;30159;49.316;8.558;2022-09-30T00:19:02;6.53;;;5.93;;
44456;SDS011;30159;49.316;8.558;2022-09-30T00:21:30;5.80;;;5.30;;
44456;SDS011;30159;49.316;8.558;2022-09-30T00:23:57;7.37;;;6.50;;
44456;SDS011;30159;49.316;8.558;2022-09-30T00:26:24;7.33;;;6.60;;
44456;SDS011;30159;49.316;8.558;2022-09-30T00:28:52;6.93;;;6.10;;
44456;SDS011;30159;49.316;8.558;2022-09-30T00:31:21;7.90;;;6.00;;
44456;SDS011;30159;49.316;8.558;2022-09-30T00:33:51;7.27;;;6.50;;
44456;SDS011;30159;49.316;8.558;2022-09-30T00:36:32;6.30;;;5.60;;
44456;SDS011;30159;49.316;8.558;2022-09-30T00:38:59;4.97;;;4.60;;
44456;SDS011;30159;49.316;8.558;2022-09-30T00:41:28;6.50;;;4.73;;
44456;SDS011;30159;49.316;8.558;2022-09-30T00:43:55;7.20;;;5.40;;
44456;SDS011;30159;49.316;8.558;2022-09-30T00:46:24;6.20;;;5.60;;
44456;SDS011;30159;49.316;8.558;2022-09-30T00:48:59;5.60;;;5.10;;
44456;SDS011;30159;49.316;8.558;2022-09-30T00:51:32;5.67;;;5.10;;
44456;SDS011;30159;49.316;8.558;2022-09-30T00:54:02;5.53;;;5.00;;
44456;SDS011;30159;49.316;8.558;2022-09-30T00:56:32;5.30;;;4.80;;
44456;SDS011;30159;49.316;8.558;2022-09-30T00:59:04;5.67;;;5.07;;
44456;SDS011;30159;49.316;8.558;2022-09-30T01:01:35;13.13;;;6.17;;
44456;SDS011;30159;49.316;8.558;2022-09-30T01:04:08;5.10;;;4.63;;
44456;SDS011;30159;49.316;8.558;2022-09-30T01:06:37;8.47;;;5.47;;
44456;SDS011;30159;49.316;8.558;2022-09-30T01:09:04;6.00;;;5.00;;
44456;SDS011;30159;49.316;8.558;2022-09-30T01:11:31;6.83;;;5.23;;
44456;SDS011;30159;49.316;8.558;2022-09-30T01:13:59;5.67;;;5.13;;
44456;SDS011;30159;49.316;8.558;2022-09-30T01:16:32;6.27;;;4.90;;
44456;SDS011;30159;49.316;8.558;2022-09-30T01:19:23;7.90;;;5.60;;
44456;SDS011;30159;49.316;8.558;2022-09-30T01:22:25;7.00;;;6.30;;
44456;SDS011;30159;49.316;8.558;2022-09-30T01:28:18;6.70;;;5.80;;
44456;SDS011;30159;49.316;8.558;2022-09-30T01:31:23;6.77;;;6.17;;
44456;SDS011;30159;49.316;8.558;2022-09-30T01:34:06;8.47;;;5.90;;
44456;SDS011;30159;49.316;8.558;2022-09-30T01:36:44;7.07;;;6.37;;
44456;SDS011;30159;49.316;8.558;2022-09-30T01:39:24;8.37;;;6.43;;
44456;SDS011;30159;49.316;8.558;2022-09-30T01:42:00;8.63;;;6.93;;
44456;SDS011;30159;49.316;8.558;2022-09-30T01:44:36;12.10;;;6.10;;
44456;SDS011;30159;49.316;8.558;2022-09-30T01:47:10;8.00;;;6.20;;
44456;SDS011;30159;49.316;8.558;2022-09-30T01:49:45;10.20;;;6.20;;
44456;SDS011;30159;49.316;8.558;2022-09-30T01:52:18;7.57;;;5.80;;
44456;SDS011;30159;49.316;8.558;2022-09-30T01:54:49;7.33;;;6.63;;
44456;SDS011;30159;49.316;8.558;2022-09-30T01:57:23;9.47;;;6.73;;
44456;SDS011;30159;49.316;8.558;2022-09-30T01:59:56;8.03;;;7.00;;
44456;SDS011;30159;49.316;8.558;2022-09-30T02:02:31;6.67;;;5.97;;
44456;SDS011;30159;49.316;8.558;2022-09-30T02:05:02;8.07;;;7.27;;
44456;SDS011;30159;49.316;8.558;2022-09-30T02:07:35;7.17;;;6.20;;
44456;SDS011;30159;49.316;8.558;2022-09-30T02:10:05;8.23;;;7.17;;
44456;SDS011;30159;49.316;8.558;2022-09-30T02:12:37;6.77;;;6.07;;
44456;SDS011;30159;49.316;8.558;2022-09-30T02:15:13;11.77;;;6.40;;
44456;SDS011;30159;49.316;8.558;2022-09-30T02:17:47;7.33;;;6.30;;
44456;SDS011;30159;49.316;8.558;2022-09-30T02:20:18;11.80;;;7.47;;
44456;SDS011;30159;49.316;8.558;2022-09-30T02:22:50;7.73;;;6.40;;
44456;SDS011;30159;49.316;8.558;2022-09-30T02:25:23;7.47;;;6.67;;
44456;SDS011;30159;49.316;8.558;2022-09-30T02:27:54;5.30;;;4.90;;
44456;SDS011;30159;49.316;8.558;2022-09-30T02:30:23;5.60;;;5.07;;
44456;SDS011;30159;49.316;8.558;2022-09-30T02:32:54;6.63;;;6.03;;
44456;SDS011;30159;49.316;8.558;2022-09-30T02:35:25;7.37;;;6.30;;
44456;SDS011;30159;49.316;8.558;2022-09-30T02:37:56;7.87;;;5.70;;
44456;SDS011;30159;49.316;8.558;2022-09-30T02:40:28;8.10;;;6.50;;
44456;SDS011;30159;49.316;8.558;2022-09-30T02:43:01;6.93;;;6.23;;
44456;SDS011;30159;49.316;8.558;2022-09-30T02:45:30;6.73;;;5.37;;
44456;SDS011;30159;49.316;8.558;2022-09-30T02:48:06;5.13;;;4.80;;
44456;SDS011;30159;49.316;8.558;2022-09-30T02:50:42;5.70;;;4.90;;
44456;SDS011;30159;49.316;8.558;2022-09-30T02:53:16;5.93;;;5.43;;
44456;SDS011;30159;49.316;8.558;2022-09-30T02:55:54;7.53;;;6.60;;
44456;SDS011;30159;49.316;8.558;2022-09-30T02:58:34;6.40;;;5.83;;
44456;SDS011;30159;49.316;8.558;2022-09-30T03:01:04;5.87;;;5.37;;
44456;SDS011;30159;49.316;8.558;2022-09-30T03:03:34;5.20;;;4.73;;
44456;SDS011;30159;49.316;8.558;2022-09-30T03:06:04;6.90;;;6.03;;
44456;SDS011;30159;49.316;8.558;2022-09-30T03:08:31;6.57;;;5.30;;
44456;SDS011;30159;49.316;8.558;2022-09-30T03:10:58;6.03;;;5.53;;
44456;SDS011;30159;49.316;8.558;2022-09-30T03:13:31;6.40;;;5.80;;
44456;SDS011;30159;49.316;8.558;2022-09-30T03:16:35;6.50;;;5.33;;
44456;SDS011;30159;49.316;8.558;2022-09-30T03:19:20;7.73;;;6.00;;
44456;SDS011;30159;49.316;8.558;2022-09-30T03:22:03;6.97;;;6.30;;
44456;SDS011;30159;49.316;8.558;2022-09-30T03:24:52;6.07;;;5.47;;
44456;SDS011;30159;49.316;8.558;2022-09-30T03:27:32;5.70;;;5.10;;
44456;SDS011;30159;49.316;8.558;2022-09-30T03:30:12;7.27;;;5.50;;
44456;SDS011;30159;49.316;8.558;2022-09-30T03:32:48;7.30;;;5.73;;
44456;SDS011;30159;49.316;8.558;2022-09-30T03:35:30;6.00;;;5.50;;
44456;SDS011;30159;49.316;8.558;2022-09-30T03:38:05;9.60;;;5.80;;
44456;SDS011;30159;49.316;8.558;2022-09-30T03:40:39;7.73;;;5.17;;
44456;SDS011;30159;49.316;8.558;2022-09-30T03:43:15;5.80;;;5.30;;
44456;SDS011;30159;49.316;8.558;2022-09-30T03:45:49;9.50;;;5.00;;
44456;SDS011;30159;49.316;8.558;2022-09-30T03:48:20;6.83;;;6.03;;
44456;SDS011;30159;49.316;8.558;2022-09-30T03:50:49;37.20;;;20.03;;
44456;SDS011;30159;49.316;8.558;2022-09-30T03:53:17;21.07;;;13.63;;
44456;SDS011;30159;49.316;8.558;2022-09-30T03:55:45;17.53;;;12.20;;
44456;SDS011;30159;49.316;8.558;2022-09-30T03:58:13;12.60;;;9.13;;
44456;SDS011;30159;49.316;8.558;2022-09-30T04:00:40;11.93;;;6.23;;
44456;SDS011;30159;49.316;8.558;2022-09-30T04:03:12;9.43;;;6.70;;
44456;SDS011;30159;49.316;8.558;2022-09-30T04:05:38;7.50;;;5.43;;
44456;SDS011;30159;49.316;8.558;2022-09-30T04:08:06;4.90;;;4.50;;
44456;SDS011;30159;49.316;8.558;2022-09-30T04:10:33;4.90;;;4.43;;
44456;SDS011;30159;49.316;8.558;2022-09-30T04:13:00;6.30;;;5.50;;
44456;SDS011;30159;49.316;8.558;2022-09-30T04:15:26;4.93;;;4.57;;
44456;SDS011;30159;49.316;8.558;2022-09-30T04:17:53;6.50;;;5.60;;
44456;SDS011;30159;49.316;8.558;2022-09-30T04:20:19;5.57;;;5.03;;
44456;SDS011;30159;49.316;8.558;2022-09-30T04:22:46;4.43;;;4.13;;
44456;SDS011;30159;49.316;8.558;2022-09-30T04:25:14;6.00;;;5.40;;
44456;SDS011;30159;49.316;8.558;2022-09-30T04:27:40;5.10;;;4.70;;
44456;SDS011;30159;49.316;8.558;2022-09-30T04:30:07;7.70;;;5.20;;
44456;SDS011;30159;49.316;8.558;2022-09-30T04:32:34;7.60;;;5.47;;
44456;SDS011;30159;49.316;8.558;2022-09-30T04:35:01;5.60;;;5.20;;
44456;SDS011;30159;49.316;8.558;2022-09-30T04:37:28;5.10;;;4.70;;
44456;SDS011;30159;49.316;8.558;2022-09-30T04:39:54;3.73;;;3.50;;
44456;SDS011;30159;49.316;8.558;2022-09-30T04:42:22;5.10;;;4.70;;
44456;SDS011;30159;49.316;8.558;2022-09-30T04:44:49;5.47;;;5.00;;
44456;SDS011;30159;49.316;8.558;2022-09-30T04:47:15;4.83;;;4.53;;
44456;SDS011;30159;49.316;8.558;2022-09-30T04:49:42;4.80;;;4.37;;
44456;SDS011;30159;49.316;8.558;2022-09-30T04:52:08;4.40;;;3.80;;
44456;SDS011;30159;49.316;8.558;2022-09-30T04:54:35;4.00;;;3.70;;
44456;SDS011;30159;49.316;8.558;2022-09-30T04:57:01;3.40;;;3.20;;
44456;SDS011;30159;49.316;8.558;2022-09-30T04:59:29;3.93;;;3.40;;
44456;SDS011;30159;49.316;8.558;2022-09-30T05:01:57;3.80;;;2.93;;
44456;SDS011;30159;49.316;8.558;2022-09-30T05:04:24;3.90;;;3.63;;
44456;SDS011;30159;49.316;8.558;2022-09-30T05:06:51;4.00;;;3.60;;
44456;SDS011;30159;49.316;8.558;2022-09-30T05:09:17;3.90;;;3.53;;
44456;SDS011;30159;49.316;8.558;2022-09-30T05:11:43;5.77;;;4.10;;
44456;SDS011;30159;49.316;8.558;2022-09-30T05:14:10;3.23;;;3.03;;
44456;SDS011;30159;49.316;8.558;2022-09-30T05:16:38;3.73;;;3.47;;
44456;SDS011;30159;49.316;8.558;2022-09-30T05:19:04;4.00;;;3.50;;
44456;SDS011;30159;49.316;8.558;2022-09-30T05:21:31;5.13;;;3.70;;
44456;SDS011;30159;49.316;8.558;2022-09-30T05:23:58;3.63;;;2.97;;
44456;SDS011;30159;49.316;8.558;2022-09-30T05:26:24;3.57;;;3.27;;
44456;SDS011;30159;49.316;8.558;2022-09-30T05:28:51;5.00;;;3.37;;
44456;SDS011;30159;49.316;8.558;2022-09-30T05:31:17;4.63;;;4.13;;
44456;SDS011;30159;49.316;8.558;2022-09-30T05:33:46;4.30;;;4.00;;
44456;SDS011;30159;49.316;8.558;2022-09-30T05:36:13;4.30;;;4.10;;
44456;SDS011;30159;49.316;8.558;2022-09-30T05:38:41;5.17;;;4.60;;
44456;SDS011;30159;49.316;8.558;2022-09-30T05:41:08;4.13;;;3.73;;
44456;SDS011;30159;49.316;8.558;2022-09-30T05:43:36;4.90;;;4.60;;
44456;SDS011;30159;49.316;8.558;2022-09-30T05:46:03;5.50;;;4.20;;
44456;SDS011;30159;49.316;8.558;2022-09-30T05:48:29;5.20;;;4.03;;
44456;SDS011;30159;49.316;8.558;2022-09-30T05:50:58;4.77;;;4.47;;
44456;SDS011;30159;49.316;8.558;2022-09-30T05:53:25;4.60;;;4.30;;
44456;SDS011;30159;49.316;8.558;2022-09-30T05:55:52;7.10;;;4.60;;
44456;SDS011;30159;49.316;8.558;2022-09-30T05:58:19;9.10;;;6.47;;
44456;SDS011;30159;49.316;8.558;2022-09-30T06:00:48;6.20;;;5.40;;
44456;SDS011;30159;49.316;8.558;2022-09-30T06:03:16;5.90;;;5.00;;
44456;SDS011;30159;49.316;8.558;2022-09-30T06:05:43;7.17;;;4.77;;
44456;SDS011;30159;49.316;8.558;2022-09-30T06:08:12;6.03;;;5.10;;
44456;SDS011;30159;49.316;8.558;2022-09-30T06:10:40;6.93;;;3.53;;
44456;SDS011;30159;49.316;8.558;2022-09-30T06:13:08;5.60;;;5.20;;
44456;SDS011;30159;49.316;8.558;2022-09-30T06:15:34;5.27;;;4.80;;
44456;SDS011;30159;49.316;8.558;2022-09-30T06:18:02;5.30;;;4.80;;
44456;SDS011;30159;49.316;8.558;2022-09-30T06:20:28;6.13;;;5.57;;
44456;SDS011;30159;49.316;8.558;2022-09-30T06:22:57;6.00;;;5.70;;
44456;SDS011;30159;49.316;8.558;2022-09-30T06:25:26;6.40;;;5.80;;
44456;SDS011;30159;49.316;8.558;2022-09-30T06:27:53;6.77;;;6.17;;
44456;SDS011;30159;49.316;8.558;2022-09-30T06:30:19;7.70;;;6.67;;
44456;SDS011;30159;49.316;8.558;2022-09-30T06:32:46;5.93;;;5.40;;
44456;SDS011;30159;49.316;8.558;2022-09-30T06:35:13;4.73;;;4.43;;
44456;SDS011;30159;49.316;8.558;2022-09-30T06:37:40;5.80;;;5.30;;
44456;SDS011;30159;49.316;8.558;2022-09-30T06:40:07;4.83;;;4.43;;
44456;SDS011;30159;49.316;8.558;2022-09-30T06:42:36;6.97;;;4.53;;
44456;SDS011;30159;49.316;8.558;2022-09-30T06:45:02;5.10;;;4.70;;
44456;SDS011;30159;49.316;8.558;2022-09-30T06:47:29;4.73;;;4.33;;
44456;SDS011;30159;49.316;8.558;2022-09-30T06:49:57;4.40;;;4.10;;
44456;SDS011;30159;49.316;8.558;2022-09-30T06:52:23;5.13;;;4.63;;
44456;SDS011;30159;49.316;8.558;2022-09-30T06:54:50;4.33;;;3.93;;
44456;SDS011;30159;49.316;8.558;2022-09-30T06:57:20;4.80;;;4.40;;
44456;SDS011;30159;49.316;8.558;2022-09-30T06:59:50;5.33;;;4.83;;
44456;SDS011;30159;49.316;8.558;2022-09-30T07:02:17;6.90;;;5.70;;
44456;SDS011;30159;49.316;8.558;2022-09-30T07:04:43;4.40;;;4.10;;
44456;SDS011;30159;49.316;8.558;2022-09-30T07:07:10;7.20;;;5.03;;
44456;SDS011;30159;49.316;8.558;2022-09-30T07:09:37;5.60;;;5.10;;
44456;SDS011;30159;49.316;8.558;2022-09-30T07:12:03;8.60;;;4.00;;
44456;SDS011;30159;49.316;8.558;2022-09-30T07:14:31;4.03;;;3.30;;
44456;SDS011;30159;49.316;8.558;2022-09-30T07:17:00;4.57;;;4.17;;
44456;SDS011;30159;49.316;8.558;2022-09-30T07:19:28;5.07;;;4.60;;
44456;SDS011;30159;49.316;8.558;2022-09-30T07:21:54;7.70;;;6.10;;
44456;SDS011;30159;49.316;8.558;2022-09-30T07:24:41;8.03;;;5.73;;
44456;SDS011;30159;49.316;8.558;2022-09-30T07:27:07;11.37;;;7.87;;
44456;SDS011;30159;49.316;8.558;2022-09-30T07:29:34;13.30;;;8.53;;
44456;SDS011;30159;49.316;8.558;2022-09-30T07:32:02;10.67;;;7.93;;
44456;SDS011;30159;49.316;8.558;2022-09-30T07:34:28;15.63;;;9.10;;
44456;SDS011;30159;49.316;8.558;2022-09-30T07:36:55;13.17;;;9.53;;
44456;SDS011;30159;49.316;8.558;2022-09-30T07:39:21;11.83;;;9.00;;
44456;SDS011;30159;49.316;8.558;2022-09-30T07:41:48;19.67;;;11.53;;
44456;SDS011;30159;49.316;8.558;2022-09-30T07:44:14;21.33;;;12.10;;
44456;SDS011;30159;49.316;8.558;2022-09-30T07:46:42;16.87;;;10.33;;
44456;SDS011;30159;49.316;8.558;2022-09-30T07:49:11;15.20;;;11.37;;
44456;SDS011;30159;49.316;8.558;2022-09-30T07:51:49;16.53;;;11.10;;
44456;SDS011;30159;49.316;8.558;2022-09-30T07:54:18;24.77;;;11.23;;
44456;SDS011;30159;49.316;8.558;2022-09-30T07:56:46;17.53;;;11.17;;
44456;SDS011;30159;49.316;8.558;2022-09-30T07:59:14;12.87;;;10.00;;
44456;SDS011;30159;49.316;8.558;2022-09-30T08:01:41;18.53;;;9.93;;
44456;SDS011;30159;49.316;8.558;2022-09-30T08:04:09;13.47;;;9.80;;
44456;SDS011;30159;49.316;8.558;2022-09-30T08:06:38;17.00;;;10.67;;
44456;SDS011;30159;49.316;8.558;2022-09-30T08:09:07;24.00;;;10.87;;
44456;SDS011;30159;49.316;8.558;2022-09-30T08:11:34;12.63;;;10.77;;
44456;SDS011;30159;49.316;8.558;2022-09-30T08:14:02;17.10;;;10.37;;
44456;SDS011;30159;49.316;8.558;2022-09-30T08:16:29;20.97;;;13.90;;
44456;SDS011;30159;49.316;8.558;2022-09-30T08:18:58;17.57;;;10.90;;
44456;SDS011;30159;49.316;8.558;2022-09-30T08:21:28;13.40;;;10.50;;
44456;SDS011;30159;49.316;8.558;2022-09-30T08:23:54;15.33;;;11.27;;
44456;SDS011;30159;49.316;8.558;2022-09-30T08:26:21;17.93;;;12.03;;
44456;SDS011;30159;49.316;8.558;2022-09-30T08:28:48;14.57;;;10.70;;
44456;SDS011;30159;49.316;8.558;2022-09-30T08:31:16;13.10;;;10.47;;
44456;SDS011;30159;49.316;8.558;2022-09-30T08:33:44;15.17;;;11.30;;
44456;SDS011;30159;49.316;8.558;2022-09-30T08:36:11;16.90;;;12.50;;
44456;SDS011;30159;49.316;8.558;2022-09-30T08:38:41;20.70;;;11.50;;
44456;SDS011;30159;49.316;8.558;2022-09-30T08:41:16;14.20;;;11.47;;
44456;SDS011;30159;49.316;8.558;2022-09-30T08:44:00;15.37;;;10.83;;
44456;SDS011;30159;49.316;8.558;2022-09-30T08:46:36;15.20;;;11.43;;
44456;SDS011;30159;49.316;8.558;2022-09-30T08:49:16;14.90;;;10.67;;
44456;SDS011;30159;49.316;8.558;2022-09-30T08:51:54;15.30;;;11.37;;
44456;SDS011;30159;49.316;8.558;2022-09-30T08:54:28;15.70;;;11.97;;
44456;SDS011;30159;49.316;8.558;2022-09-30T08:56:56;20.83;;;12.07;;
44456;SDS011;30159;49.316;8.558;2022-09-30T08:59:26;14.73;;;11.37;;
44456;SDS011;30159;49.316;8.558;2022-09-30T09:01:58;15.70;;;11.63;;
44456;SDS011;30159;49.316;8.558;2022-09-30T09:04:34;20.90;;;11.20;;
44456;SDS011;30159;49.316;8.558;2022-09-30T09:07:03;15.70;;;10.77;;
44456;SDS011;30159;49.316;8.558;2022-09-30T09:09:42;12.83;;;11.30;;
44456;SDS011;30159;49.316;8.558;2022-09-30T09:12:20;12.90;;;9.43;;
44456;SDS011;30159;49.316;8.558;2022-09-30T09:15:05;13.63;;;10.00;;
44456;SDS011;30159;49.316;8.558;2022-09-30T09:17:49;11.63;;;9.30;;
44456;SDS011;30159;49.316;8.558;2022-09-30T09:20:28;11.33;;;9.43;;
44456;SDS011;30159;49.316;8.558;2022-09-30T09:22:59;12.23;;;9.17;;
44456;SDS011;30159;49.316;8.558;2022-09-30T09:25:30;11.30;;;9.40;;
44456;SDS011;30159;49.316;8.558;2022-09-30T09:27:57;14.93;;;9.73;;
44456;SDS011;30159;49.316;8.558;2022-09-30T09:30:26;12.23;;;9.27;;
44456;SDS011;30159;49.316;8.558;2022-09-30T09:32:56;15.13;;;11.17;;
44456;SDS011;30159;49.316;8.558;2022-09-30T09:35:34;11.03;;;9.90;;
44456;SDS011;30159;49.316;8.558;2022-09-30T09:38:08;13.97;;;9.53;;
44456;SDS011;30159;49.316;8.558;2022-09-30T09:40:51;8.50;;;7.63;;
44456;SDS011;30159;49.316;8.558;2022-09-30T09:43:27;9.67;;;8.33;;
44456;SDS011;30159;49.316;8.558;2022-09-30T09:46:03;11.77;;;7.53;;
44456;SDS011;30159;49.316;8.558;2022-09-30T09:48:40;11.50;;;9.27;;
44456;SDS011;30159;49.316;8.558;2022-09-30T09:51:10;11.70;;;9.23;;
44456;SDS011;30159;49.316;8.558;2022-09-30T09:53:46;12.73;;;10.80;;
44456;SDS011;30159;49.316;8.558;2022-09-30T09:56:16;11.03;;;9.10;;
44456;SDS011;30159;49.316;8.558;2022-09-30T09:59:06;12.17;;;10.40;;
44456;SDS011;30159;49.316;8.558;2022-09-30T10:01:36;17.60;;;11.30;;
44456;SDS011;30159;49.316;8.558;2022-09-30T10:04:08;13.73;;;10.33;;
44456;SDS011;30159;49.316;8.558;2022-09-30T10:06:47;14.17;;;10.93;;
44456;SDS011;30159;49.316;8.558;2022-09-30T10:09:22;12.13;;;10.17;;
44456;SDS011;30159;49.316;8.558;2022-09-30T10:12:17;16.23;;;10.90;;
44456;SDS011;30159;49.316;8.558;2022-09-30T10:14:54;12.97;;;9.60;;
44456;SDS011;30159;49.316;8.558;2022-09-30T10:17:25;14.13;;;10.70;;
44456;SDS011;30159;49.316;8.558;2022-09-30T10:19:54;10.93;;;9.77;;
44456;SDS011;30159;49.316;8.558;2022-09-30T10:22:26;17.50;;;11.17;;
44456;SDS011;30159;49.316;8.558;2022-09-30T10:25:07;13.53;;;10.07;;
44456;SDS011;30159;49.316;8.558;2022-09-30T10:27:48;12.90;;;9.07;;
44456;SDS011;30159;49.316;8.558;2022-09-30T10:30:40;10.00;;;8.87;;
44456;SDS011;30159;49.316;8.558;2022-09-30T10:33:18;13.37;;;10.57;;
44456;SDS011;30159;49.316;8.558;2022-09-30T10:35:48;12.17;;;9.30;;
44456;SDS011;30159;49.316;8.558;2022-09-30T10:38:18;12.77;;;10.10;;
44456;SDS011;30159;49.316;8.558;2022-09-30T10:40:46;10.47;;;9.13;;
44456;SDS011;30159;49.316;8.558;2022-09-30T10:43:18;10.10;;;8.60;;
44456;SDS011;30159;49.316;8.558;2022-09-30T10:45:48;9.63;;;8.10;;
44456;SDS011;30159;49.316;8.558;2022-09-30T10:48:16;13.40;;;9.20;;
44456;SDS011;30159;49.316;8.558;2022-09-30T10:50:48;13.27;;;9.23;;
44456;SDS011;30159;49.316;8.558;2022-09-30T10:53:17;10.80;;;9.57;;
44456;SDS011;30159;49.316;8.558;2022-09-30T10:55:47;10.50;;;8.37;;
44456;SDS011;30159;49.316;8.558;2022-09-30T10:58:22;12.47;;;8.67;;
44456;SDS011;30159;49.316;8.558;2022-09-30T11:00:55;15.77;;;9.17;;
44456;SDS011;30159;49.316;8.558;2022-09-30T11:03:29;10.93;;;8.10;;
44456;SDS011;30159;49.316;8.558;2022-09-30T11:05:59;13.03;;;8.93;;
44456;SDS011;30159;49.316;8.558;2022-09-30T11:08:28;11.73;;;8.70;;
44456;SDS011;30159;49.316;8.558;2022-09-30T11:11:02;9.63;;;7.77;;
44456;SDS011;30159;49.316;8.558;2022-09-30T11:13:36;13.60;;;8.77;;
44456;SDS011;30159;49.316;8.558;2022-09-30T11:16:10;8.83;;;7.93;;
44456;SDS011;30159;49.316;8.558;2022-09-30T11:18:42;11.83;;;8.30;;
44456;SDS011;30159;49.316;8.558;2022-09-30T11:21:14;9.40;;;8.40;;
44456;SDS011;30159;49.316;8.558;2022-09-30T11:23:47;13.90;;;7.80;;
44456;SDS011;30159;49.316;8.558;2022-09-30T11:26:22;12.77;;;8.23;;
44456;SDS011;30159;49.316;8.558;2022-09-30T11:29:03;8.80;;;7.90;;
44456;SDS011;30159;49.316;8.558;2022-09-30T11:31:52;12.07;;;7.17;;
44456;SDS011;30159;49.316;8.558;2022-09-30T11:34:30;8.70;;;7.73;;
44456;SDS011;30159;49.316;8.558;2022-09-30T11:37:07;8.80;;;6.77;;
44456;SDS011;30159;49.316;8.558;2022-09-30T11:39:49;8.93;;;8.07;;
44456;SDS011;30159;49.316;8.558;2022-09-30T11:42:31;7.83;;;6.67;;
44456;SDS011;30159;49.316;8.558;2022-09-30T11:45:08;15.03;;;8.03;;
44456;SDS011;30159;49.316;8.558;2022-09-30T11:47:49;9.00;;;7.20;;
44456;SDS011;30159;49.316;8.558;2022-09-30T11:50:36;8.20;;;6.10;;
44456;SDS011;30159;49.316;8.558;2022-09-30T11:53:15;7.97;;;7.17;;
44456;SDS011;30159;49.316;8.558;2022-09-30T11:55:54;9.13;;;7.43;;
44456;SDS011;30159;49.316;8.558;2022-09-30T11:58:32;7.90;;;6.20;;
44456;SDS011;30159;49.316;8.558;2022-09-30T12:01:05;8.60;;;7.10;;
44456;SDS011;30159;49.316;8.558;2022-09-30T12:03:46;6.90;;;6.20;;
44456;SDS011;30159;49.316;8.558;2022-09-30T12:06:23;7.57;;;6.83;;
44456;SDS011;30159;49.316;8.558;2022-09-30T12:08:54;6.70;;;6.00;;
44456;SDS011;30159;49.316;8.558;2022-09-30T12:11:30;4.97;;;4.57;;
44456;SDS011;30159;49.316;8.558;2022-09-30T12:14:02;7.43;;;6.27;;
44456;SDS011;30159;49.316;8.558;2022-09-30T12:16:33;6.20;;;5.70;;
44456;SDS011;30159;49.316;8.558;2022-09-30T12:19:03;5.97;;;5.47;;
44456;SDS011;30159;49.316;8.558;2022-09-30T12:21:39;5.87;;;5.37;;
44456;SDS011;30159;49.316;8.558;2022-09-30T12:24:12;6.67;;;4.93;;
44456;SDS011;30159;49.316;8.558;2022-09-30T12:26:44;7.27;;;4.97;;
44456;SDS011;30159;49.316;8.558;2022-09-30T12:29:12;5.00;;;3.93;;
44456;SDS011;30159;49.316;8.558;2022-09-30T12:32:16;5.27;;;4.70;;
44456;SDS011;30159;49.316;8.558;2022-09-30T12:35:11;5.33;;;3.70;;
44456;SDS011;30159;49.316;8.558;2022-09-30T12:37:56;2.90;;;2.70;;
44456;SDS011;30159;49.316;8.558;2022-09-30T12:40:45;3.10;;;2.80;;
44456;SDS011;30159;49.316;8.558;2022-09-30T12:43:26;10.00;;;2.90;;
44456;SDS011;30159;49.316;8.558;2022-09-30T12:46:10;4.03;;;3.83;;
44456;SDS011;30159;49.316;8.558;2022-09-30T12:48:42;6.37;;;3.70;;
44456;SDS011;30159;49.316;8.558;2022-09-30T12:51:19;4.23;;;3.30;;
44456;SDS011;30159;49.316;8.558;2022-09-30T12:53:50;4.00;;;3.60;;
44456;SDS011;30159;49.316;8.558;2022-09-30T12:56:22;3.43;;;3.23;;
44456;SDS011;30159;49.316;8.558;2022-09-30T12:58:52;5.40;;;4.27;;
44456;SDS011;30159;49.316;8.558;2022-09-30T13:01:22;4.10;;;3.50;;
44456;SDS011;30159;49.316;8.558;2022-09-30T13:04:08;3.77;;;3.47;;
44456;SDS011;30159;49.316;8.558;2022-09-30T13:09:34;5.60;;;3.70;;
44456;SDS011;30159;49.316;8.558;2022-09-30T13:12:14;7.57;;;3.93;;
44456;SDS011;30159;49.316;8.558;2022-09-30T13:14:42;3.30;;;2.60;;
44456;SDS011;30159;49.316;8.558;2022-09-30T13:17:22;2.47;;;2.10;;
44456;SDS011;30159;49.316;8.558;2022-09-30T13:19:54;2.30;;;2.10;;
44456;SDS011;30159;49.316;8.558;2022-09-30T13:25:23;2.33;;;1.97;;
44456;SDS011;30159;49.316;8.558;2022-09-30T13:27:50;1.90;;;1.80;;
44456;SDS011;30159;49.316;8.558;2022-09-30T13:30:32;4.27;;;1.80;;
44456;SDS011;30159;49.316;8.558;2022-09-30T13:33:05;1.93;;;1.83;;
44456;SDS011;30159;49.316;8.558;2022-09-30T13:36:17;3.57;;;1.63;;
44456;SDS011;30159;49.316;8.558;2022-09-30T13:39:15;1.50;;;1.40;;
44456;SDS011;30159;49.316;8.558;2022-09-30T13:41:48;2.00;;;1.53;;
44456;SDS011;30159;49.316;8.558;2022-09-30T13:44:23;1.93;;;1.60;;
44456;SDS011;30159;49.316;8.558;2022-09-30T13:46:58;2.67;;;1.30;;
44456;SDS011;30159;49.316;8.558;2022-09-30T13:49:31;2.00;;;1.90;;
44456;SDS011;30159;49.316;8.558;2022-09-30T13:52:08;2.10;;;2.00;;
44456;SDS011;30159;49.316;8.558;2022-09-30T13:54:44;1.83;;;1.63;;
44456;SDS011;30159;49.316;8.558;2022-09-30T13:57:14;4.63;;;1.97;;
44456;SDS011;30159;49.316;8.558;2022-09-30T13:59:46;2.70;;;1.80;;
44456;SDS011;30159;49.316;8.558;2022-09-30T14:02:31;1.40;;;1.30;;
44456;SDS011;30159;49.316;8.558;2022-09-30T14:11:20;2.53;;;1.70;;
44456;SDS011;30159;49.316;8.558;2022-09-30T14:14:02;2.17;;;1.50;;
44456;SDS011;30159;49.316;8.558;2022-09-30T14:16:44;1.40;;;1.30;;
44456;SDS011;30159;49.316;8.558;2022-09-30T14:19:28;2.33;;;1.40;;
44456;SDS011;30159;49.316;8.558;2022-09-30T14:22:07;1.83;;;1.50;;
44456;SDS011;30159;49.316;8.558;2022-09-30T14:24:37;2.53;;;1.60;;
44456;SDS011;30159;49.316;8.558;2022-09-30T14:27:10;1.83;;;1.73;;
44456;SDS011;30159;49.316;8.558;2022-09-30T14:29:51;1.53;;;1.43;;
44456;SDS011;30159;49.316;8.558;2022-09-30T14:32:25;1.93;;;1.30;;
44456;SDS011;30159;49.316;8.558;2022-09-30T14:34:54;2.13;;;1.50;;
44456;SDS011;30159;49.316;8.558;2022-09-30T14:37:23;1.63;;;1.53;;
44456;SDS011;30159;49.316;8.558;2022-09-30T14:39:54;1.70;;;1.40;;
44456;SDS011;30159;49.316;8.558;2022-09-30T14:42:22;1.60;;;1.50;;
44456;SDS011;30159;49.316;8.558;2022-09-30T14:44:54;2.17;;;1.60;;
44456;SDS011;30159;49.316;8.558;2022-09-30T14:47:29;3.40;;;1.90;;
44456;SDS011;30159;49.316;8.558;2022-09-30T14:49:58;3.03;;;1.60;;
44456;SDS011;30159;49.316;8.558;2022-09-30T14:52:32;1.90;;;1.80;;
44456;SDS011;30159;49.316;8.558;2022-09-30T14:55:02;1.70;;;1.60;;
44456;SDS011;30159;49.316;8.558;2022-09-30T14:57:29;1.67;;;1.57;;
44456;SDS011;30159;49.316;8.558;2022-09-30T15:02:47;4.03;;;1.60;;
44456;SDS011;30159;49.316;8.558;2022-09-30T15:05:14;4.47;;;1.17;;
44456;SDS011;30159;49.316;8.558;2022-09-30T15:07:42;1.40;;;1.30;;
44456;SDS011;30159;49.316;8.558;2022-09-30T15:10:16;1.83;;;1.47;;
44456;SDS011;30159;49.316;8.558;2022-09-30T15:12:45;1.40;;;1.30;;
44456;SDS011;30159;49.316;8.558;2022-09-30T15:15:22;1.80;;;1.70;;
44456;SDS011;30159;49.316;8.558;2022-09-30T15:17:51;2.30;;;1.27;;
44456;SDS011;30159;49.316;8.558;2022-09-30T15:20:23;1.30;;;1.20;;
44456;SDS011;30159;49.316;8.558;2022-09-30T15:22:53;3.57;;;1.60;;
44456;SDS011;30159;49.316;8.558;2022-09-30T15:25:28;3.40;;;1.40;;
44456;SDS011;30159;49.316;8.558;2022-09-30T15:27:56;1.33;;;1.23;;
44456;SDS011;30159;49.316;8.558;2022-09-30T15:30:24;1.43;;;1.33;;
44456;SDS011;30159;49.316;8.558;2022-09-30T15:33:00;1.53;;;1.43;;